createdAt,value
2017-05-18T00:00:12.756Z,1013.62
2017-05-18T00:00:53.642Z,1013.65
2017-05-18T00:01:34.531Z,1013.62
2017-05-18T00:02:15.440Z,1013.61
2017-05-18T00:02:56.337Z,1013.63
2017-05-18T00:03:37.226Z,1013.62
2017-05-18T00:04:18.117Z,1013.63
2017-05-18T00:04:59.028Z,1013.61
2017-05-18T00:05:39.932Z,1013.59
2017-05-18T00:06:20.821Z,1013.58
2017-05-18T00:07:01.741Z,1013.57
2017-05-18T00:07:42.632Z,1013.56
2017-05-18T00:08:23.521Z,1013.55
2017-05-18T00:09:04.418Z,1013.58
2017-05-18T00:09:45.354Z,1013.57
2017-05-18T00:10:26.243Z,1013.53
2017-05-18T00:11:07.148Z,1013.54
2017-05-18T00:11:48.042Z,1013.52
2017-05-18T00:12:28.933Z,1013.49
2017-05-18T00:13:09.846Z,1013.52
2017-05-18T00:13:50.739Z,1013.49
2017-05-18T00:14:31.622Z,1013.49
2017-05-18T00:15:12.523Z,1013.52
2017-05-18T00:15:53.409Z,1013.47
2017-05-18T00:16:34.290Z,1013.49
2017-05-18T00:17:15.186Z,1013.44
2017-05-18T00:17:56.081Z,1013.46
2017-05-18T00:18:36.961Z,1013.44
2017-05-18T00:19:17.860Z,1013.48
2017-05-18T00:19:58.759Z,1013.42
2017-05-18T00:20:39.645Z,1013.43
2017-05-18T00:21:20.551Z,1013.46
2017-05-18T00:22:01.441Z,1013.44
2017-05-18T00:22:42.341Z,1013.43
2017-05-18T00:23:23.239Z,1013.43
2017-05-18T00:24:04.140Z,1013.43
2017-05-18T00:24:45.026Z,1013.37
2017-05-18T00:25:25.940Z,1013.4
2017-05-18T00:26:06.809Z,1013.38
2017-05-18T00:26:47.742Z,1013.4
2017-05-18T00:27:28.669Z,1013.36
2017-05-18T00:28:09.566Z,1013.32
2017-05-18T00:28:50.466Z,1013.37
2017-05-18T00:29:31.365Z,1013.39
2017-05-18T00:30:12.267Z,1013.35
2017-05-18T00:30:53.159Z,1013.35
2017-05-18T00:31:34.048Z,1013.36
2017-05-18T00:32:14.936Z,1013.35
2017-05-18T00:32:55.816Z,1013.32
2017-05-18T00:33:36.722Z,1013.34
2017-05-18T00:34:17.617Z,1013.32
2017-05-18T00:34:58.515Z,1013.31
2017-05-18T00:35:39.435Z,1013.32
2017-05-18T00:36:20.334Z,1013.35
2017-05-18T00:37:01.230Z,1013.31
2017-05-18T00:37:42.129Z,1013.32
2017-05-18T00:38:23.018Z,1013.33
2017-05-18T00:39:03.912Z,1013.31
2017-05-18T00:39:44.805Z,1013.34
2017-05-18T00:40:25.703Z,1013.29
2017-05-18T00:41:06.602Z,1013.28
2017-05-18T00:41:47.486Z,1013.29
2017-05-18T00:42:28.371Z,1013.27
2017-05-18T00:43:09.266Z,1013.25
2017-05-18T00:43:50.165Z,1013.25
2017-05-18T00:44:31.059Z,1013.27
2017-05-18T00:45:11.952Z,1013.26
2017-05-18T00:45:52.840Z,1013.22
2017-05-18T00:46:33.767Z,1013.26
2017-05-18T00:47:14.657Z,1013.26
2017-05-18T00:47:55.548Z,1013.25
2017-05-18T00:48:36.444Z,1013.22
2017-05-18T00:49:17.337Z,1013.29
2017-05-18T00:49:58.226Z,1013.23
2017-05-18T00:50:39.130Z,1013.22
2017-05-18T00:51:20.022Z,1013.23
2017-05-18T00:52:00.915Z,1013.21
2017-05-18T00:52:41.824Z,1013.2
2017-05-18T00:53:22.714Z,1013.16
2017-05-18T00:54:03.643Z,1013.18
2017-05-18T00:54:44.538Z,1013.16
2017-05-18T00:55:25.441Z,1013.16
2017-05-18T00:56:06.338Z,1013.14
2017-05-18T00:56:47.258Z,1013.16
2017-05-18T00:57:28.155Z,1013.14
2017-05-18T00:58:09.060Z,1013.12
2017-05-18T00:58:49.961Z,1013.12
2017-05-18T00:59:30.886Z,1013.14
2017-05-18T01:00:11.782Z,1013.13
2017-05-18T01:00:52.679Z,1013.1
2017-05-18T01:01:33.570Z,1013.1
2017-05-18T01:02:14.463Z,1013.1
2017-05-18T01:02:55.357Z,1013.09
2017-05-18T01:03:36.276Z,1013.07
2017-05-18T01:04:17.171Z,1013.06
2017-05-18T01:04:58.072Z,1013.04
2017-05-18T01:05:38.959Z,1013.06
2017-05-18T01:06:19.849Z,1013.09
2017-05-18T01:07:00.744Z,1013.07
2017-05-18T01:07:41.642Z,1013.08
2017-05-18T01:08:22.521Z,1013.07
2017-05-18T01:09:03.410Z,1013.06
2017-05-18T01:09:44.313Z,1013.07
2017-05-18T01:10:25.216Z,1013.04
2017-05-18T01:11:06.108Z,1013.07
2017-05-18T01:11:47.019Z,1013.04
2017-05-18T01:12:27.918Z,1013.04
2017-05-18T01:13:08.813Z,1013.02
2017-05-18T01:13:49.696Z,1013.05
2017-05-18T01:14:30.588Z,1013.02
2017-05-18T01:15:11.497Z,1013.02
2017-05-18T01:15:52.426Z,1013.01
2017-05-18T01:16:33.344Z,1013
2017-05-18T01:17:14.249Z,1012.99
2017-05-18T01:17:55.132Z,1013.01
2017-05-18T01:18:36.028Z,1013.02
2017-05-18T01:19:16.923Z,1012.99
2017-05-18T01:19:57.806Z,1013
2017-05-18T01:20:38.697Z,1013.01
2017-05-18T01:21:19.595Z,1012.99
2017-05-18T01:22:00.478Z,1012.96
2017-05-18T01:22:41.378Z,1012.96
2017-05-18T01:23:22.275Z,1012.94
2017-05-18T01:24:03.166Z,1012.96
2017-05-18T01:24:44.064Z,1012.98
2017-05-18T01:25:24.949Z,1012.98
2017-05-18T01:26:05.838Z,1012.97
2017-05-18T01:26:46.771Z,1012.96
2017-05-18T01:27:27.618Z,1012.96
2017-05-18T01:28:08.511Z,1012.93
2017-05-18T01:28:49.428Z,1012.96
2017-05-18T01:29:30.315Z,1012.92
2017-05-18T01:30:11.194Z,1012.91
2017-05-18T01:30:52.082Z,1012.91
2017-05-18T01:31:32.996Z,1012.92
2017-05-18T01:32:13.881Z,1012.9
2017-05-18T01:32:54.790Z,1012.94
2017-05-18T01:33:35.685Z,1012.89
2017-05-18T01:34:16.567Z,1012.89
2017-05-18T01:34:57.499Z,1012.9
2017-05-18T01:35:38.394Z,1012.9
2017-05-18T01:36:19.269Z,1012.85
2017-05-18T01:37:00.204Z,1012.89
2017-05-18T01:38:34.403Z,1012.86
2017-05-18T01:39:15.313Z,1012.86
2017-05-18T01:39:56.201Z,1012.89
2017-05-18T01:40:37.092Z,1012.89
2017-05-18T01:41:17.990Z,1012.93
2017-05-18T01:41:58.879Z,1012.89
2017-05-18T01:42:39.777Z,1012.91
2017-05-18T01:43:20.667Z,1012.9
2017-05-18T01:44:01.557Z,1012.86
2017-05-18T01:44:42.440Z,1012.89
2017-05-18T01:45:23.332Z,1012.89
2017-05-18T01:46:04.228Z,1012.9
2017-05-18T01:46:45.110Z,1012.88
2017-05-18T01:47:25.998Z,1012.88
2017-05-18T01:48:06.904Z,1012.9
2017-05-18T01:48:47.792Z,1012.86
2017-05-18T01:49:28.675Z,1012.85
2017-05-18T01:50:09.567Z,1012.83
2017-05-18T01:50:50.450Z,1012.85
2017-05-18T01:51:31.338Z,1012.81
2017-05-18T01:52:12.218Z,1012.79
2017-05-18T01:52:53.111Z,1012.81
2017-05-18T01:53:33.998Z,1012.8
2017-05-18T01:54:14.895Z,1012.77
2017-05-18T01:54:55.779Z,1012.77
2017-05-18T01:55:36.670Z,1012.79
2017-05-18T01:56:17.561Z,1012.78
2017-05-18T01:56:58.452Z,1012.8
2017-05-18T01:57:39.353Z,1012.79
2017-05-18T01:58:20.238Z,1012.77
2017-05-18T01:59:01.132Z,1012.77
2017-05-18T01:59:42.023Z,1012.8
2017-05-18T02:00:22.917Z,1012.8
2017-05-18T02:01:03.806Z,1012.79
2017-05-18T02:01:44.698Z,1012.8
2017-05-18T02:02:25.605Z,1012.78
2017-05-18T02:03:06.499Z,1012.78
2017-05-18T02:03:47.391Z,1012.77
2017-05-18T02:04:28.283Z,1012.79
2017-05-18T02:05:09.184Z,1012.82
2017-05-18T02:05:50.088Z,1012.81
2017-05-18T02:06:30.983Z,1012.78
2017-05-18T02:07:11.889Z,1012.79
2017-05-18T02:07:52.775Z,1012.76
2017-05-18T02:08:33.669Z,1012.73
2017-05-18T02:09:14.563Z,1012.77
2017-05-18T02:09:55.450Z,1012.72
2017-05-18T02:10:36.346Z,1012.69
2017-05-18T02:11:17.240Z,1012.71
2017-05-18T02:11:58.140Z,1012.71
2017-05-18T02:12:39.029Z,1012.69
2017-05-18T02:13:19.917Z,1012.7
2017-05-18T02:14:00.809Z,1012.69
2017-05-18T02:14:41.692Z,1012.69
2017-05-18T02:15:22.578Z,1012.69
2017-05-18T02:16:03.485Z,1012.66
2017-05-18T02:16:44.363Z,1012.69
2017-05-18T02:17:25.259Z,1012.68
2017-05-18T02:18:06.154Z,1012.64
2017-05-18T02:18:47.038Z,1012.65
2017-05-18T02:19:27.940Z,1012.64
2017-05-18T02:20:08.857Z,1012.66
2017-05-18T02:20:49.746Z,1012.68
2017-05-18T02:21:30.654Z,1012.67
2017-05-18T02:22:11.545Z,1012.67
2017-05-18T02:22:52.444Z,1012.68
2017-05-18T02:23:33.334Z,1012.66
2017-05-18T02:24:14.222Z,1012.62
2017-05-18T02:24:55.115Z,1012.65
2017-05-18T02:25:36.010Z,1012.64
2017-05-18T02:26:16.894Z,1012.65
2017-05-18T02:26:57.779Z,1012.66
2017-05-18T02:27:38.673Z,1012.68
2017-05-18T02:28:19.553Z,1012.63
2017-05-18T02:29:00.442Z,1012.6
2017-05-18T02:29:41.405Z,1012.63
2017-05-18T02:30:22.227Z,1012.61
2017-05-18T02:31:03.123Z,1012.61
2017-05-18T02:31:44.025Z,1012.56
2017-05-18T02:32:24.910Z,1012.57
2017-05-18T02:33:05.812Z,1012.57
2017-05-18T02:33:46.681Z,1012.52
2017-05-18T02:34:27.562Z,1012.58
2017-05-18T02:35:08.454Z,1012.51
2017-05-18T02:35:49.349Z,1012.53
2017-05-18T02:36:30.250Z,1012.51
2017-05-18T02:37:11.132Z,1012.5
2017-05-18T02:37:52.031Z,1012.55
2017-05-18T02:38:32.926Z,1012.49
2017-05-18T02:40:41.961Z,1012.55
2017-05-18T02:41:22.850Z,1012.52
2017-05-18T02:42:03.743Z,1012.52
2017-05-18T02:42:44.631Z,1012.52
2017-05-18T02:43:25.526Z,1012.51
2017-05-18T02:44:06.429Z,1012.5
2017-05-18T02:44:47.312Z,1012.53
2017-05-18T02:45:28.207Z,1012.53
2017-05-18T02:46:09.110Z,1012.5
2017-05-18T02:46:49.995Z,1012.53
2017-05-18T02:47:30.882Z,1012.49
2017-05-18T02:48:11.769Z,1012.5
2017-05-18T02:48:52.661Z,1012.52
2017-05-18T02:49:33.543Z,1012.53
2017-05-18T02:50:14.450Z,1012.53
2017-05-18T02:50:55.336Z,1012.48
2017-05-18T02:51:36.230Z,1012.46
2017-05-18T02:52:17.129Z,1012.45
2017-05-18T02:52:58.014Z,1012.46
2017-05-18T02:53:38.893Z,1012.5
2017-05-18T02:54:19.799Z,1012.47
2017-05-18T02:55:00.677Z,1012.48
2017-05-18T02:55:41.544Z,1012.5
2017-05-18T02:56:22.437Z,1012.49
2017-05-18T02:57:03.338Z,1012.46
2017-05-18T02:57:44.222Z,1012.45
2017-05-18T02:58:25.115Z,1012.45
2017-05-18T02:59:06.016Z,1012.44
2017-05-18T02:59:46.902Z,1012.47
2017-05-18T03:00:27.790Z,1012.43
2017-05-18T03:01:08.693Z,1012.42
2017-05-18T03:01:49.566Z,1012.42
2017-05-18T03:02:30.442Z,1012.44
2017-05-18T03:03:11.343Z,1012.46
2017-05-18T03:03:52.247Z,1012.43
2017-05-18T03:04:33.120Z,1012.44
2017-05-18T03:05:14.005Z,1012.42
2017-05-18T03:05:54.895Z,1012.43
2017-05-18T03:06:35.788Z,1012.42
2017-05-18T03:08:35.565Z,1012.44
2017-05-18T03:09:16.459Z,1012.41
2017-05-18T03:09:57.366Z,1012.38
2017-05-18T03:10:38.254Z,1012.4
2017-05-18T03:11:19.131Z,1012.4
2017-05-18T03:12:00.025Z,1012.34
2017-05-18T03:12:40.932Z,1012.38
2017-05-18T03:13:21.811Z,1012.38
2017-05-18T03:14:02.701Z,1012.38
2017-05-18T03:14:43.589Z,1012.36
2017-05-18T03:15:24.468Z,1012.41
2017-05-18T03:16:05.364Z,1012.39
2017-05-18T03:16:46.267Z,1012.45
2017-05-18T03:17:27.159Z,1012.36
2017-05-18T03:18:08.020Z,1012.36
2017-05-18T03:18:48.914Z,1012.4
2017-05-18T03:19:29.812Z,1012.36
2017-05-18T03:20:10.734Z,1012.38
2017-05-18T03:20:51.629Z,1012.37
2017-05-18T03:21:32.501Z,1012.38
2017-05-18T03:22:13.407Z,1012.37
2017-05-18T03:22:54.298Z,1012.37
2017-05-18T03:23:35.193Z,1012.33
2017-05-18T03:24:16.117Z,1012.36
2017-05-18T03:24:56.971Z,1012.39
2017-05-18T03:25:37.860Z,1012.38
2017-05-18T03:26:18.758Z,1012.36
2017-05-18T03:26:59.651Z,1012.29
2017-05-18T03:27:40.544Z,1012.34
2017-05-18T03:28:21.465Z,1012.34
2017-05-18T03:29:02.374Z,1012.34
2017-05-18T03:29:43.251Z,1012.33
2017-05-18T03:30:24.161Z,1012.34
2017-05-18T03:31:05.059Z,1012.35
2017-05-18T03:31:45.955Z,1012.28
2017-05-18T03:32:26.851Z,1012.31
2017-05-18T03:33:07.743Z,1012.32
2017-05-18T03:33:48.633Z,1012.33
2017-05-18T03:34:29.513Z,1012.27
2017-05-18T03:35:10.405Z,1012.27
2017-05-18T03:35:51.307Z,1012.25
2017-05-18T03:36:32.191Z,1012.26
2017-05-18T03:37:13.079Z,1012.27
2017-05-18T03:37:53.982Z,1012.26
2017-05-18T03:38:34.861Z,1012.23
2017-05-18T03:39:15.747Z,1012.24
2017-05-18T03:39:56.650Z,1012.23
2017-05-18T03:40:37.538Z,1012.22
2017-05-18T03:41:18.430Z,1012.23
2017-05-18T03:41:59.319Z,1012.24
2017-05-18T03:42:40.212Z,1012.22
2017-05-18T03:43:21.123Z,1012.25
2017-05-18T03:44:02.018Z,1012.22
2017-05-18T03:44:42.932Z,1012.22
2017-05-18T03:45:23.828Z,1012.22
2017-05-18T03:46:04.709Z,1012.21
2017-05-18T03:46:45.598Z,1012.22
2017-05-18T03:47:26.489Z,1012.22
2017-05-18T03:48:07.386Z,1012.18
2017-05-18T03:48:48.261Z,1012.2
2017-05-18T03:49:29.137Z,1012.2
2017-05-18T03:50:10.029Z,1012.17
2017-05-18T03:50:50.918Z,1012.19
2017-05-18T03:51:31.828Z,1012.18
2017-05-18T03:52:12.831Z,1012.12
2017-05-18T03:52:53.645Z,1012.12
2017-05-18T03:53:34.544Z,1012.14
2017-05-18T03:54:15.431Z,1012.12
2017-05-18T03:54:56.339Z,1012.11
2017-05-18T03:55:37.230Z,1012.12
2017-05-18T03:56:18.119Z,1012.1
2017-05-18T03:56:59.022Z,1012.12
2017-05-18T03:57:39.925Z,1012.12
2017-05-18T03:58:20.818Z,1012.14
2017-05-18T03:59:01.717Z,1012.12
2017-05-18T03:59:42.619Z,1012.12
2017-05-18T04:00:23.512Z,1012.11
2017-05-18T04:01:04.410Z,1012.11
2017-05-18T04:01:45.302Z,1012.1
2017-05-18T04:02:26.191Z,1012.11
2017-05-18T04:03:07.080Z,1012.06
2017-05-18T04:03:47.977Z,1012.06
2017-05-18T04:04:28.861Z,1012.05
2017-05-18T04:05:09.750Z,1012.04
2017-05-18T04:05:50.645Z,1012.09
2017-05-18T04:06:31.542Z,1012.06
2017-05-18T04:07:12.428Z,1012.03
2017-05-18T04:07:53.334Z,1012.04
2017-05-18T04:08:34.214Z,1012.07
2017-05-18T04:09:15.110Z,1012.06
2017-05-18T04:09:56.006Z,1012.03
2017-05-18T04:10:36.929Z,1012.02
2017-05-18T04:11:17.809Z,1012.05
2017-05-18T04:11:58.699Z,1012.03
2017-05-18T04:12:39.595Z,1012.03
2017-05-18T04:13:20.491Z,1011.99
2017-05-18T04:14:01.388Z,1011.98
2017-05-18T04:14:42.283Z,1011.98
2017-05-18T04:15:23.176Z,1012.02
2017-05-18T04:16:04.076Z,1011.96
2017-05-18T04:16:44.964Z,1011.95
2017-05-18T04:17:25.850Z,1011.99
2017-05-18T04:18:06.734Z,1011.92
2017-05-18T04:18:47.621Z,1011.95
2017-05-18T04:19:28.524Z,1011.94
2017-05-18T04:20:09.418Z,1011.95
2017-05-18T04:20:50.316Z,1011.96
2017-05-18T04:21:31.202Z,1011.95
2017-05-18T04:22:12.076Z,1011.97
2017-05-18T04:22:52.970Z,1011.93
2017-05-18T04:23:33.859Z,1011.98
2017-05-18T04:24:14.745Z,1011.97
2017-05-18T04:24:55.641Z,1011.92
2017-05-18T04:25:36.523Z,1011.94
2017-05-18T04:26:17.414Z,1011.92
2017-05-18T04:26:58.301Z,1011.92
2017-05-18T04:27:39.191Z,1011.9
2017-05-18T04:28:20.087Z,1011.9
2017-05-18T04:29:00.994Z,1011.86
2017-05-18T04:29:41.882Z,1011.86
2017-05-18T04:30:22.783Z,1011.85
2017-05-18T04:31:03.679Z,1011.86
2017-05-18T04:31:44.567Z,1011.83
2017-05-18T04:32:25.516Z,1011.82
2017-05-18T04:33:06.585Z,1011.86
2017-05-18T04:33:47.510Z,1011.86
2017-05-18T04:34:28.459Z,1011.83
2017-05-18T04:35:09.351Z,1011.87
2017-05-18T04:35:50.240Z,1011.83
2017-05-18T04:36:31.137Z,1011.86
2017-05-18T04:37:12.047Z,1011.89
2017-05-18T04:37:52.945Z,1011.87
2017-05-18T04:38:33.844Z,1011.89
2017-05-18T04:39:14.733Z,1011.87
2017-05-18T04:39:55.644Z,1011.85
2017-05-18T04:40:36.532Z,1011.85
2017-05-18T04:41:17.422Z,1011.87
2017-05-18T04:41:58.320Z,1011.87
2017-05-18T04:42:39.209Z,1011.86
2017-05-18T04:43:20.104Z,1011.87
2017-05-18T04:44:01.003Z,1011.86
2017-05-18T04:44:41.887Z,1011.81
2017-05-18T04:45:22.783Z,1011.86
2017-05-18T04:46:03.675Z,1011.85
2017-05-18T04:46:44.570Z,1011.83
2017-05-18T04:47:25.464Z,1011.81
2017-05-18T04:48:06.377Z,1011.82
2017-05-18T04:48:47.303Z,1011.82
2017-05-18T04:49:28.199Z,1011.79
2017-05-18T04:50:09.091Z,1011.83
2017-05-18T04:50:49.978Z,1011.86
2017-05-18T04:51:30.872Z,1011.8
2017-05-18T04:52:11.763Z,1011.8
2017-05-18T04:52:52.651Z,1011.77
2017-05-18T04:53:33.531Z,1011.8
2017-05-18T04:54:14.426Z,1011.8
2017-05-18T04:54:55.325Z,1011.81
2017-05-18T04:55:36.206Z,1011.84
2017-05-18T04:56:17.098Z,1011.84
2017-05-18T04:56:57.988Z,1011.81
2017-05-18T04:57:38.879Z,1011.86
2017-05-18T04:58:19.770Z,1011.77
2017-05-18T04:59:00.669Z,1011.81
2017-05-18T04:59:41.558Z,1011.82
2017-05-18T05:00:22.454Z,1011.78
2017-05-18T05:01:03.346Z,1011.84
2017-05-18T05:01:44.263Z,1011.83
2017-05-18T05:02:25.156Z,1011.8
2017-05-18T05:03:06.039Z,1011.8
2017-05-18T05:03:46.940Z,1011.83
2017-05-18T05:04:27.833Z,1011.79
2017-05-18T05:05:08.731Z,1011.83
2017-05-18T05:05:49.633Z,1011.79
2017-05-18T05:06:30.535Z,1011.79
2017-05-18T05:07:11.405Z,1011.82
2017-05-18T05:07:52.350Z,1011.78
2017-05-18T05:08:33.251Z,1011.78
2017-05-18T05:09:14.150Z,1011.8
2017-05-18T05:09:55.044Z,1011.8
2017-05-18T05:10:35.930Z,1011.8
2017-05-18T05:11:16.841Z,1011.79
2017-05-18T05:11:57.723Z,1011.77
2017-05-18T05:12:38.623Z,1011.79
2017-05-18T05:13:19.532Z,1011.82
2017-05-18T05:14:00.420Z,1011.77
2017-05-18T05:14:41.338Z,1011.78
2017-05-18T05:15:22.197Z,1011.77
2017-05-18T05:16:03.108Z,1011.79
2017-05-18T05:16:43.981Z,1011.79
2017-05-18T05:17:24.871Z,1011.79
2017-05-18T05:18:05.772Z,1011.76
2017-05-18T05:18:46.691Z,1011.79
2017-05-18T05:19:27.582Z,1011.79
2017-05-18T05:20:08.469Z,1011.78
2017-05-18T05:20:49.382Z,1011.76
2017-05-18T05:21:30.267Z,1011.74
2017-05-18T05:22:11.156Z,1011.77
2017-05-18T05:22:52.039Z,1011.8
2017-05-18T05:23:32.926Z,1011.73
2017-05-18T05:24:13.830Z,1011.74
2017-05-18T05:24:54.724Z,1011.73
2017-05-18T05:25:35.615Z,1011.72
2017-05-18T05:26:16.511Z,1011.76
2017-05-18T05:26:57.411Z,1011.78
2017-05-18T05:27:38.306Z,1011.71
2017-05-18T05:28:19.199Z,1011.76
2017-05-18T05:29:00.087Z,1011.78
2017-05-18T05:29:40.977Z,1011.76
2017-05-18T05:30:21.874Z,1011.78
2017-05-18T05:31:02.761Z,1011.73
2017-05-18T05:31:43.651Z,1011.76
2017-05-18T05:32:24.550Z,1011.76
2017-05-18T05:33:05.470Z,1011.69
2017-05-18T05:33:47.101Z,1011.76
2017-05-18T05:34:27.992Z,1011.73
2017-05-18T05:35:08.890Z,1011.76
2017-05-18T05:35:49.780Z,1011.75
2017-05-18T05:36:30.719Z,1011.73
2017-05-18T05:37:12.512Z,1011.78
2017-05-18T05:37:53.404Z,1011.72
2017-05-18T05:38:34.306Z,1011.78
2017-05-18T05:39:15.265Z,1011.78
2017-05-18T05:39:56.198Z,1011.78
2017-05-18T05:40:37.095Z,1011.79
2017-05-18T05:41:17.994Z,1011.74
2017-05-18T05:41:58.878Z,1011.73
2017-05-18T05:42:40.581Z,1011.76
2017-05-18T05:43:24.464Z,1011.7
2017-05-18T05:44:05.427Z,1011.75
2017-05-18T05:44:46.239Z,1011.71
2017-05-18T05:45:27.150Z,1011.73
2017-05-18T05:46:08.193Z,1011.73
2017-05-18T05:46:49.103Z,1011.74
2017-05-18T05:47:30.079Z,1011.79
2017-05-18T05:48:10.963Z,1011.75
2017-05-18T05:48:51.911Z,1011.74
2017-05-18T05:49:32.781Z,1011.72
2017-05-18T05:50:13.674Z,1011.7
2017-05-18T05:50:54.627Z,1011.75
2017-05-18T05:51:35.503Z,1011.76
2017-05-18T05:52:16.391Z,1011.74
2017-05-18T05:52:57.324Z,1011.71
2017-05-18T05:53:38.241Z,1011.7
2017-05-18T05:54:19.150Z,1011.69
2017-05-18T05:56:15.189Z,1011.66
2017-05-18T05:56:56.062Z,1011.68
2017-05-18T05:57:37.723Z,1011.64
2017-05-18T05:58:18.657Z,1011.65
2017-05-18T05:58:59.684Z,1011.65
2017-05-18T05:59:40.582Z,1011.63
2017-05-18T06:00:21.480Z,1011.59
2017-05-18T06:01:02.368Z,1011.59
2017-05-18T06:01:43.261Z,1011.6
2017-05-18T06:02:24.138Z,1011.61
2017-05-18T06:03:05.052Z,1011.62
2017-05-18T06:03:46.081Z,1011.63
2017-05-18T06:06:17.754Z,1011.6
2017-05-18T06:07:00.503Z,1011.61
2017-05-18T06:07:44.020Z,1011.62
2017-05-18T06:08:27.517Z,1011.63
2017-05-18T06:09:08.386Z,1011.62
2017-05-18T06:09:49.293Z,1011.65
2017-05-18T06:10:30.188Z,1011.63
2017-05-18T06:11:11.084Z,1011.61
2017-05-18T06:11:51.956Z,1011.61
2017-05-18T06:12:32.836Z,1011.59
2017-05-18T06:13:13.733Z,1011.61
2017-05-18T06:13:54.626Z,1011.59
2017-05-18T06:14:35.518Z,1011.62
2017-05-18T06:15:16.411Z,1011.6
2017-05-18T06:15:57.303Z,1011.63
2017-05-18T06:16:38.200Z,1011.61
2017-05-18T06:17:19.120Z,1011.63
2017-05-18T06:18:00.019Z,1011.62
2017-05-18T06:18:40.912Z,1011.63
2017-05-18T06:19:21.800Z,1011.63
2017-05-18T06:20:02.697Z,1011.59
2017-05-18T06:20:43.586Z,1011.61
2017-05-18T06:21:24.483Z,1011.56
2017-05-18T06:22:05.377Z,1011.63
2017-05-18T06:22:46.288Z,1011.61
2017-05-18T06:23:27.186Z,1011.66
2017-05-18T06:24:08.082Z,1011.56
2017-05-18T06:24:48.969Z,1011.6
2017-05-18T06:25:29.872Z,1011.61
2017-05-18T06:26:10.763Z,1011.58
2017-05-18T06:26:51.661Z,1011.55
2017-05-18T06:27:32.570Z,1011.53
2017-05-18T06:28:13.464Z,1011.52
2017-05-18T06:28:54.362Z,1011.55
2017-05-18T06:29:35.254Z,1011.57
2017-05-18T06:30:16.150Z,1011.52
2017-05-18T06:30:57.055Z,1011.56
2017-05-18T06:31:37.943Z,1011.58
2017-05-18T06:32:18.862Z,1011.55
2017-05-18T06:32:59.760Z,1011.53
2017-05-18T06:33:40.655Z,1011.5
2017-05-18T06:34:21.556Z,1011.49
2017-05-18T06:35:02.467Z,1011.53
2017-05-18T06:35:43.360Z,1011.5
2017-05-18T06:36:24.255Z,1011.48
2017-05-18T06:37:05.153Z,1011.44
2017-05-18T06:37:46.069Z,1011.45
2017-05-18T06:38:26.968Z,1011.44
2017-05-18T06:39:07.867Z,1011.5
2017-05-18T06:40:46.263Z,1011.48
2017-05-18T06:41:27.161Z,1011.45
2017-05-18T06:42:08.066Z,1011.46
2017-05-18T06:42:48.946Z,1011.46
2017-05-18T06:43:29.850Z,1011.45
2017-05-18T06:44:10.724Z,1011.43
2017-05-18T06:44:51.660Z,1011.47
2017-05-18T06:45:32.560Z,1011.47
2017-05-18T06:46:13.468Z,1011.42
2017-05-18T06:46:54.355Z,1011.42
2017-05-18T06:47:35.259Z,1011.45
2017-05-18T06:48:16.173Z,1011.46
2017-05-18T06:48:57.054Z,1011.44
2017-05-18T06:49:37.960Z,1011.36
2017-05-18T06:50:18.870Z,1011.39
2017-05-18T06:50:59.760Z,1011.44
2017-05-18T06:51:40.650Z,1011.37
2017-05-18T06:52:21.556Z,1011.4
2017-05-18T06:53:02.462Z,1011.35
2017-05-18T06:53:43.369Z,1011.37
2017-05-18T06:54:24.263Z,1011.34
2017-05-18T06:55:05.164Z,1011.36
2017-05-18T06:55:46.071Z,1011.4
2017-05-18T06:56:26.979Z,1011.36
2017-05-18T06:57:07.875Z,1011.38
2017-05-18T06:57:48.775Z,1011.3
2017-05-18T06:58:29.685Z,1011.37
2017-05-18T06:59:10.635Z,1011.33
2017-05-18T06:59:51.552Z,1011.35
2017-05-18T07:00:32.445Z,1011.34
2017-05-18T07:01:13.347Z,1011.35
2017-05-18T07:01:54.256Z,1011.33
2017-05-18T07:02:35.163Z,1011.37
2017-05-18T07:03:16.073Z,1011.35
2017-05-18T07:03:56.982Z,1011.33
2017-05-18T07:04:37.891Z,1011.31
2017-05-18T07:05:18.794Z,1011.26
2017-05-18T07:05:59.700Z,1011.36
2017-05-18T07:06:40.615Z,1011.31
2017-05-18T07:07:21.521Z,1011.31
2017-05-18T07:08:02.421Z,1011.33
2017-05-18T07:08:43.332Z,1011.3
2017-05-18T07:09:24.232Z,1011.33
2017-05-18T07:10:05.128Z,1011.28
2017-05-18T07:10:46.024Z,1011.27
2017-05-18T07:11:26.937Z,1011.23
2017-05-18T07:12:07.828Z,1011.32
2017-05-18T07:12:48.728Z,1011.24
2017-05-18T07:13:29.619Z,1011.28
2017-05-18T07:14:10.531Z,1011.21
2017-05-18T07:14:51.456Z,1011.2
2017-05-18T07:15:32.355Z,1011.22
2017-05-18T07:16:13.257Z,1011.17
2017-05-18T07:16:54.169Z,1011.14
2017-05-18T07:17:35.102Z,1011.2
2017-05-18T07:18:16.010Z,1011.2
2017-05-18T07:18:56.915Z,1011.19
2017-05-18T07:19:37.807Z,1011.19
2017-05-18T07:20:18.715Z,1011.14
2017-05-18T07:20:59.623Z,1011.14
2017-05-18T07:21:40.536Z,1011.15
2017-05-18T07:22:21.434Z,1011.13
2017-05-18T07:23:02.337Z,1011.12
2017-05-18T07:23:43.242Z,1011.15
2017-05-18T07:24:24.141Z,1011.1
2017-05-18T07:25:05.060Z,1011.16
2017-05-18T07:25:45.957Z,1011.12
2017-05-18T07:26:26.866Z,1011.14
2017-05-18T07:27:07.769Z,1011.07
2017-05-18T07:27:48.703Z,1011.1
2017-05-18T07:28:29.596Z,1011.08
2017-05-18T07:29:10.513Z,1011.07
2017-05-18T07:29:51.417Z,1011.05
2017-05-18T07:30:32.331Z,1011.07
2017-05-18T07:31:13.231Z,1011.05
2017-05-18T07:31:54.144Z,1011.05
2017-05-18T07:32:35.053Z,1011.07
2017-05-18T07:33:15.984Z,1011.07
2017-05-18T07:33:56.901Z,1011.1
2017-05-18T07:34:37.810Z,1011.06
2017-05-18T07:35:18.729Z,1011.1
2017-05-18T07:36:51.982Z,1011.04
2017-05-18T07:37:32.886Z,1010.97
2017-05-18T07:38:13.778Z,1011.02
2017-05-18T07:38:54.695Z,1011.02
2017-05-18T07:39:35.618Z,1011.02
2017-05-18T07:40:16.518Z,1011.01
2017-05-18T07:40:57.423Z,1011.04
2017-05-18T07:41:38.335Z,1011.05
2017-05-18T07:42:19.243Z,1011.08
2017-05-18T07:43:00.151Z,1011
2017-05-18T07:43:41.045Z,1010.98
2017-05-18T07:44:21.941Z,1011.04
2017-05-18T07:45:02.852Z,1010.98
2017-05-18T07:45:43.764Z,1011
2017-05-18T07:46:24.671Z,1011
2017-05-18T07:47:05.582Z,1011.02
2017-05-18T07:47:46.486Z,1011.01
2017-05-18T07:48:27.422Z,1011
2017-05-18T07:49:08.335Z,1010.98
2017-05-18T07:49:49.246Z,1010.95
2017-05-18T07:50:30.161Z,1010.99
2017-05-18T07:51:11.173Z,1010.97
2017-05-18T07:51:52.102Z,1010.98
2017-05-18T07:52:33.016Z,1010.98
2017-05-18T07:53:13.924Z,1010.96
2017-05-18T07:53:54.824Z,1011.03
2017-05-18T07:54:35.747Z,1011.04
2017-05-18T07:55:16.640Z,1011.01
2017-05-18T07:55:57.547Z,1010.98
2017-05-18T07:56:38.460Z,1010.97
2017-05-18T07:57:19.395Z,1010.93
2017-05-18T07:58:00.303Z,1010.96
2017-05-18T07:58:41.220Z,1010.96
2017-05-18T07:59:22.126Z,1010.95
2017-05-18T08:00:03.033Z,1010.92
2017-05-18T08:00:43.938Z,1010.95
2017-05-18T08:01:24.872Z,1010.92
2017-05-18T08:02:05.798Z,1010.92
2017-05-18T08:02:46.702Z,1010.93
2017-05-18T08:03:27.598Z,1010.89
2017-05-18T08:04:08.516Z,1010.89
2017-05-18T08:04:49.420Z,1010.9
2017-05-18T08:05:30.327Z,1010.85
2017-05-18T08:06:11.235Z,1010.92
2017-05-18T08:06:52.145Z,1010.83
2017-05-18T08:07:33.057Z,1010.85
2017-05-18T08:08:13.967Z,1010.9
2017-05-18T08:08:54.874Z,1010.93
2017-05-18T08:09:35.783Z,1010.83
2017-05-18T08:10:16.692Z,1010.86
2017-05-18T08:10:57.602Z,1010.84
2017-05-18T08:11:38.507Z,1010.84
2017-05-18T08:12:19.417Z,1010.83
2017-05-18T08:13:00.329Z,1010.81
2017-05-18T08:13:41.233Z,1010.8
2017-05-18T08:14:22.145Z,1010.76
2017-05-18T08:15:03.067Z,1010.76
2017-05-18T08:15:43.964Z,1010.76
2017-05-18T08:16:24.877Z,1010.74
2017-05-18T08:17:05.784Z,1010.76
2017-05-18T08:17:46.705Z,1010.81
2017-05-18T08:18:27.596Z,1010.75
2017-05-18T08:19:08.508Z,1010.73
2017-05-18T08:19:49.410Z,1010.76
2017-05-18T08:20:30.330Z,1010.75
2017-05-18T08:21:11.236Z,1010.7
2017-05-18T08:21:52.149Z,1010.73
2017-05-18T08:22:33.053Z,1010.72
2017-05-18T08:23:13.972Z,1010.71
2017-05-18T08:23:54.874Z,1010.72
2017-05-18T08:24:35.785Z,1010.68
2017-05-18T08:25:16.692Z,1010.68